Groenswaard, Netherlands
Current Conditions -  °F | °C
As of 1:25 AM on Thursday 27 Nov 2014 (Local Time) from EHRD Reporting Station
Haze Haze  
Wind Chill: 41°   Ceiling: 300
Heat Index: 45°   Visibility: 1.6mi
Dew Point: 45°   Wind: 7mph
Humidity: 100%   Direction: 140°SE
Pressure: 29.8"   Gusts: NA
Location:  52.05°N, 4.65°E
Report Text: EHRD 270025Z AUTO 14006KT 2600 BR OVC003 07/07 Q1009 TEMPO 1200BKN001
Loading
Personal Weather Stations






























Interactive Weather Map New forecast layout! Learn more

10-Day Weather Forecast

Advertisements
Track Severe Weather on mobile